Antonio Maceo International Airport
MUCU : rendu visible

Aérodrome :











RETROUVEZ-NOUS SUR...

 
LOGIN :

S'inscrire | Disclaimer

   EN    FR    IT 

 









Légende :    VFR   VFR Marginal   IFR   IFR Intensif   IFR Très Intensif
Visi : 
Plafond : 
>= 8 km
>= 3000ft
5 à 8 km
1000 à 3000 ft
1500m à 5 km
500 à 1000 ft
800 à 1500m
200 à 500 ft
< 800m
< 200 ft
Symboles :   Orages  Brouillard  Fortes neiges  Fortes précipitations  Vent > 20 kt






- Altitude de l'aérodrome : 249 ft
- Code IATA : SCU


MUCU - Antonio Maceo International

DERNIER METAR :
  • 281451Z 33003KT 300V010 9000 FEW020 27/17 Q1015

METARs EXPIRÉS :
  • 281351Z 01004KT 330V030 9000 FEW020 25/18 Q1015
  • 281251Z 34004KT 330V050 9000 FEW070 SCT070 21/18 Q1015

TAF MUCU
Valide du 28 à 12h jusqu'au 29 à 12h UTC


281100Z 2812/2912 36005KT 9000 SCT020
BECMG 2815/2817 22008KT
BECMG 2901/2903 36005KT



MET'MAP, la Météo Aéronautique d'un coup d'oeil ! - Copyright ORBIFLY Décembre 2007 - Disclaimer

ORBIFLY MET'MAP TEAM :

Programmation & Développement : Alexandra Zaïnal
Sur une idée originale de : Baudouin d'Aumeries
Assistance à la programmation : Marc-Olivier Méhu
Soutien technique & logistique : Manuel Goepfert

Contact : metmap@orbifly.com




SOURCES & CREDITS :

   NOAA       Earth
Advisory